createdAt,value
2019-03-13T00:01:09.051Z,9.70
2019-03-13T00:06:11.235Z,9.80
2019-03-13T00:11:12.644Z,9.80
2019-03-13T00:16:14.447Z,9.80
2019-03-13T00:27:22.927Z,10.20
2019-03-13T00:32:24.014Z,10.20
2019-03-13T00:37:25.098Z,9.80
2019-03-13T00:42:26.180Z,9.20
2019-03-13T00:47:27.246Z,8.90
2019-03-13T00:52:28.317Z,8.70
2019-03-13T00:57:29.413Z,8.50
2019-03-13T01:08:37.788Z,7.90
2019-03-13T01:13:38.897Z,7.70
2019-03-13T01:18:39.991Z,7.60
2019-03-13T01:23:41.199Z,7.60
2019-03-13T01:28:42.290Z,7.40
2019-03-13T01:33:43.689Z,7.30
2019-03-13T01:38:44.904Z,8.50
2019-03-13T01:43:45.997Z,7.00
2019-03-13T01:48:47.087Z,6.80
2019-03-13T01:53:48.175Z,7.10
2019-03-13T01:58:49.281Z,6.60
2019-03-13T02:03:50.384Z,6.50
2019-03-13T02:08:51.501Z,6.40
2019-03-13T02:13:52.736Z,6.30
2019-03-13T02:18:53.833Z,6.20
2019-03-13T02:23:54.925Z,6.20
2019-03-13T02:28:56.016Z,6.20
2019-03-13T02:33:57.126Z,6.00
2019-03-13T02:38:58.229Z,7.30
2019-03-13T02:43:59.315Z,6.20
2019-03-13T02:49:00.411Z,5.80
2019-03-13T02:54:01.500Z,6.00
2019-03-13T02:59:02.703Z,7.00
2019-03-13T03:04:05.234Z,5.80
2019-03-13T03:09:07.223Z,5.70
2019-03-13T03:14:08.348Z,5.80
2019-03-13T03:19:09.551Z,5.80
2019-03-13T03:24:10.860Z,5.70
2019-03-13T03:29:11.971Z,5.30
2019-03-13T03:34:13.158Z,5.00
2019-03-13T03:39:14.255Z,4.70
2019-03-13T03:44:15.441Z,4.40
2019-03-13T03:49:16.593Z,4.30
2019-03-13T03:54:17.771Z,4.20
2019-03-13T03:59:18.964Z,4.30
2019-03-13T04:04:20.057Z,4.60
2019-03-13T04:09:21.152Z,4.70
2019-03-13T04:14:22.265Z,4.60
2019-03-13T04:19:23.472Z,4.50
2019-03-13T04:24:24.594Z,4.60
2019-03-13T04:29:25.682Z,4.60
2019-03-13T04:34:26.790Z,4.60
2019-03-13T04:39:27.917Z,5.50
2019-03-13T04:44:29.009Z,4.90
2019-03-13T04:49:30.109Z,4.80
2019-03-13T04:54:31.191Z,4.70
2019-03-13T04:59:32.291Z,4.70
2019-03-13T05:04:33.383Z,4.90
2019-03-13T05:09:36.583Z,5.10
2019-03-13T05:14:37.709Z,5.20
2019-03-13T05:19:38.801Z,5.30
2019-03-13T05:24:39.884Z,5.30
2019-03-13T05:29:40.987Z,6.40
2019-03-13T05:34:42.088Z,5.30
2019-03-13T05:39:43.197Z,5.20
2019-03-13T05:44:44.290Z,5.10
2019-03-13T05:49:45.419Z,4.90
2019-03-13T05:54:46.524Z,5.10
2019-03-13T05:59:47.616Z,5.00
2019-03-13T06:04:48.702Z,5.10
2019-03-13T06:09:49.809Z,6.30
2019-03-13T06:14:50.916Z,5.20
2019-03-13T06:19:52.017Z,5.20
2019-03-13T06:24:53.118Z,5.20
2019-03-13T06:29:54.217Z,5.20
2019-03-13T06:34:55.325Z,5.60
2019-03-13T06:39:56.645Z,5.30
2019-03-13T06:44:57.734Z,4.80
2019-03-13T06:49:58.851Z,4.90
2019-03-13T06:54:59.943Z,5.10
2019-03-13T07:00:05.784Z,6.00
2019-03-13T07:05:26.895Z,5.70
2019-03-13T07:10:29.907Z,5.50
2019-03-13T07:15:35.757Z,5.80
2019-03-13T07:20:44.061Z,5.70
2019-03-13T07:26:02.110Z,6.40
2019-03-13T07:31:11.083Z,6.00
2019-03-13T07:36:26.437Z,5.80
2019-03-13T07:41:29.568Z,6.30
2019-03-13T07:46:47.857Z,5.80
2019-03-13T07:51:50.858Z,5.90
2019-03-13T07:56:53.871Z,6.10
2019-03-13T08:02:02.751Z,6.40
2019-03-13T08:07:11.624Z,6.90
2019-03-13T08:12:26.778Z,6.90
2019-03-13T08:17:29.796Z,6.70
2019-03-13T08:22:44.834Z,6.50
2019-03-13T08:27:50.588Z,6.80
2019-03-13T08:33:02.687Z,7.60
2019-03-13T08:38:05.692Z,7.70
2019-03-13T08:43:11.735Z,7.80
2019-03-13T08:48:30.103Z,8.30
2019-03-13T08:53:36.139Z,8.40
2019-03-13T08:58:42.168Z,7.60
2019-03-13T09:03:51.170Z,7.30
2019-03-13T09:08:56.932Z,7.40
2019-03-13T09:14:18.106Z,7.30
2019-03-13T09:19:27.093Z,7.00
2019-03-13T09:24:33.067Z,7.10
2019-03-13T09:29:38.943Z,7.20
2019-03-13T09:34:42.164Z,7.40
2019-03-13T09:39:45.183Z,7.60
2019-03-13T09:44:57.431Z,7.70
2019-03-13T09:50:15.536Z,8.50
2019-03-13T09:55:33.675Z,9.30
2019-03-13T10:00:36.674Z,10.10
2019-03-13T10:05:42.453Z,11.50
2019-03-13T10:10:45.445Z,11.70
2019-03-13T10:15:48.476Z,11.30
2019-03-13T10:20:54.679Z,10.60
2019-03-13T10:26:03.461Z,10.40
2019-03-13T10:31:12.480Z,10.30
2019-03-13T10:36:24.590Z,11.90
2019-03-13T10:41:39.439Z,12.80
2019-03-13T10:46:48.228Z,11.20
2019-03-13T10:51:51.326Z,11.10
2019-03-13T10:57:00.083Z,11.00
2019-03-13T11:02:03.198Z,12.10
2019-03-13T11:07:18.471Z,11.70
2019-03-13T11:12:24.248Z,11.60
2019-03-13T11:17:30.261Z,12.50
2019-03-13T11:22:33.344Z,12.90
2019-03-13T11:27:39.071Z,12.80
2019-03-13T11:32:42.077Z,12.50
2019-03-13T11:37:48.103Z,10.90
2019-03-13T11:42:57.099Z,10.80
2019-03-13T11:48:16.948Z,9.90
2019-03-13T11:53:19.943Z,9.60
2019-03-13T11:58:41.319Z,9.30
2019-03-13T12:03:44.519Z,8.20
2019-03-13T12:08:47.531Z,8.20
2019-03-13T12:13:59.480Z,8.10
2019-03-13T12:19:19.447Z,8.10
2019-03-13T12:24:25.169Z,8.80
2019-03-13T12:29:31.368Z,8.80
2019-03-13T12:34:43.588Z,8.70
2019-03-13T12:39:52.602Z,9.00
2019-03-13T12:45:12.144Z,9.40
2019-03-13T12:50:15.365Z,9.30
2019-03-13T12:55:18.371Z,7.90
2019-03-13T13:00:24.140Z,8.90
2019-03-13T13:05:43.680Z,11.80
2019-03-13T13:10:49.463Z,12.90
2019-03-13T13:15:58.351Z,12.50
2019-03-13T13:20:59.456Z,14.00
2019-03-13T13:26:00.640Z,15.70
2019-03-13T13:31:01.736Z,16.00
2019-03-13T13:36:03.873Z,12.70
2019-03-13T13:41:05.096Z,9.80
2019-03-13T13:46:12.918Z,8.40
2019-03-13T13:51:14.150Z,9.30
2019-03-13T13:56:15.367Z,10.80
2019-03-13T14:01:16.560Z,13.60
2019-03-13T14:06:17.711Z,15.40
2019-03-13T14:11:18.946Z,12.30
2019-03-13T14:16:20.196Z,12.70
2019-03-13T14:21:21.386Z,13.40
2019-03-13T14:26:22.493Z,13.50
2019-03-13T14:31:23.591Z,11.10
2019-03-13T14:36:24.702Z,10.50
2019-03-13T14:41:26.707Z,9.60
2019-03-13T14:46:28.037Z,8.80
2019-03-13T14:51:29.131Z,8.20
2019-03-13T14:56:30.261Z,8.60
2019-03-13T15:01:31.461Z,10.20
2019-03-13T15:06:32.559Z,10.70
2019-03-13T15:11:33.667Z,12.40
2019-03-13T15:16:34.798Z,12.60
2019-03-13T15:21:35.904Z,11.50
2019-03-13T15:26:37.921Z,13.50
2019-03-13T15:31:39.040Z,12.20
2019-03-13T15:36:40.164Z,10.80
2019-03-13T15:41:41.290Z,10.00
2019-03-13T15:46:42.394Z,10.30
2019-03-13T15:51:43.512Z,9.50
2019-03-13T15:56:44.616Z,9.10
2019-03-13T16:01:45.754Z,9.60
2019-03-13T16:06:46.871Z,8.80
2019-03-13T16:11:47.994Z,8.30
2019-03-13T16:16:49.240Z,8.40
2019-03-13T16:21:50.450Z,8.40
2019-03-13T16:26:51.555Z,8.10
2019-03-13T16:31:52.653Z,8.00
2019-03-13T16:36:53.759Z,8.10
2019-03-13T16:41:54.851Z,8.10
2019-03-13T16:46:56.062Z,7.90
2019-03-13T16:51:57.164Z,8.00
2019-03-13T16:56:58.277Z,8.10
2019-03-13T17:01:59.490Z,8.00
2019-03-13T17:07:00.711Z,7.90
2019-03-13T17:12:01.808Z,7.90
2019-03-13T17:17:03.124Z,7.70
2019-03-13T17:22:04.447Z,7.50
2019-03-13T17:27:05.636Z,7.30
2019-03-13T17:32:06.740Z,7.10
2019-03-13T17:37:07.847Z,7.10
2019-03-13T17:42:08.967Z,7.10
2019-03-13T17:47:10.379Z,7.10
2019-03-13T17:52:11.477Z,7.10
2019-03-13T17:57:12.587Z,7.10
2019-03-13T18:02:13.805Z,7.00
2019-03-13T18:07:14.883Z,6.90
2019-03-13T18:12:15.984Z,7.00
2019-03-13T18:17:17.280Z,7.00
2019-03-13T18:22:18.391Z,7.10
2019-03-13T18:27:19.520Z,7.90
2019-03-13T18:32:20.730Z,7.20
2019-03-13T18:37:21.847Z,7.30
2019-03-13T18:42:23.046Z,7.30
2019-03-13T18:47:24.167Z,7.30
2019-03-13T18:52:25.551Z,7.20
2019-03-13T18:57:26.762Z,7.10
2019-03-13T19:02:28.028Z,7.00
2019-03-13T19:07:29.258Z,7.00
2019-03-13T19:12:30.410Z,7.00
2019-03-13T19:22:28.368Z,6.70
2019-03-13T19:27:29.595Z,6.70
2019-03-13T19:32:30.752Z,6.50
2019-03-13T19:37:31.981Z,6.30
2019-03-13T19:42:33.205Z,9.40
2019-03-13T19:47:34.341Z,5.70
2019-03-13T19:52:35.428Z,5.30
2019-03-13T19:57:36.618Z,6.20
2019-03-13T20:02:37.856Z,5.40
2019-03-13T20:07:39.319Z,5.40
2019-03-13T20:12:40.575Z,5.40
2019-03-13T20:17:41.963Z,5.50
2019-03-13T20:22:43.407Z,5.60
2019-03-13T20:27:44.636Z,5.70
2019-03-13T20:32:46.097Z,5.60
2019-03-13T20:37:47.382Z,5.60
2019-03-13T20:42:48.600Z,5.60
2019-03-13T20:47:50.121Z,6.20
2019-03-13T20:52:51.661Z,5.50
2019-03-13T20:57:52.973Z,5.40
2019-03-13T21:02:55.102Z,5.40
2019-03-13T21:07:56.210Z,5.50
2019-03-13T21:12:57.329Z,5.60
2019-03-13T21:17:58.768Z,6.40
2019-03-13T21:22:59.910Z,5.60
2019-03-13T21:28:01.027Z,5.70
2019-03-13T21:33:02.148Z,5.70
2019-03-13T21:38:03.365Z,5.60
2019-03-13T21:43:04.856Z,5.70
2019-03-13T21:48:06.104Z,5.60
2019-03-13T21:53:07.407Z,5.50
2019-03-13T21:58:08.498Z,5.40
2019-03-13T22:03:09.604Z,5.30
2019-03-13T22:08:10.726Z,5.60
2019-03-13T22:13:11.832Z,4.90
2019-03-13T22:18:12.953Z,4.80
2019-03-13T22:23:14.062Z,4.70
2019-03-13T22:28:15.155Z,4.50
2019-03-13T22:33:16.260Z,4.50
2019-03-13T22:38:17.367Z,5.30
2019-03-13T22:43:18.470Z,4.40
2019-03-13T22:48:19.681Z,5.50
2019-03-13T22:53:20.887Z,4.60
2019-03-13T22:58:24.479Z,4.30
2019-03-13T23:03:26.894Z,4.30
2019-03-13T23:08:30.867Z,4.30
2019-03-13T23:13:30.997Z,4.40
2019-03-13T23:18:32.217Z,4.90
2019-03-13T23:23:33.339Z,4.40
2019-03-13T23:28:34.440Z,4.80
2019-03-13T23:33:35.544Z,5.50
2019-03-13T23:38:36.647Z,5.60
2019-03-13T23:43:37.744Z,4.40
2019-03-13T23:48:38.826Z,4.40
2019-03-13T23:53:39.920Z,4.60
2019-03-13T23:58:41.008Z,4.30
